ENBN

Brønnøysund Airport

Brønnøy, Norway
TAF ENBN 211400Z 2115/2119 35008KT 9999 FEW010 SCT025 TEMPO 2115/2119 SHRA BKN012CB
Issued Valid From Valid To
Jun-21 @ 14:00 UTC
(4 hours ago)
Jun-21 @ 15:00 UTC
(3 hours ago)
Jun-21 @ 19:00 UTC
(in 54 minutes)
Jun-21 @ 15:00 to Jun-21 @ 19:00
TAF ENBN 211400Z 2115/2119 35008KT 9999 FEW010 SCT025
Wind Visibility Clouds
350° at 8 knots 10,000+ meters
  • Few at 1,000' AGL
  • Scattered at 2,500' AGL
Temporary Jun-21 @ 15:00 to Jun-21 @ 19:00
TEMPO 2115/2119 SHRA BKN012CB
Clouds Conditions
  • Broken at 1,200' AGL
  • Rain
TAF ENBN 211400Z 2115/2119 35008KT 9999 FEW010 SCT025 TEMPO 2115/2119 SHRA BKN012CB
Issued Jun-21 @ 14:00 UTC
(4 hours ago)
Valid From Jun-21 @ 15:00 UTC
(3 hours ago)
Valid To Jun-21 @ 19:00 UTC
(in 54 minutes)
Jun-21 @ 15:00 - Jun-21 @ 19:00
Wind Visibility
350° at 8 knots 10,000+ meters
Clouds
  • Few at 1,000' AGL
  • Scattered at 2,500' AGL
Temporary Jun-21 @ 15:00 - Jun-21 @ 19:00
Clouds
  • Broken at 1,200' AGL
Conditions
  • Rain